SWR781 EBBR-LSZH
Flight info
| Callsign | SWR781 |
|---|---|
| Flight time | 0h 49m |
| Altitude | 31000 |
| Route | ROUSY DCT GTQ DCT BAMEV DCT BLM |
| Aircraft | A319/M-SDE3FGHIRWY/LB1 |
Departure
| Time | 2026-04-26 11:48 |
|---|---|
| Airport | Brussels Airport (EBBR) |
Arrival
| Time | 2026-04-26 12:38 |
|---|---|
| Airport | Zürich Airport (LSZH) |
| Time | Latitude | Longitude | Altitude | Speed | Heading |
|---|---|---|---|---|---|
| 2026-04-26 11:24 | 50.90247 | 4.48461 | 121 ft | 0 kts | 335° |
| 2026-04-26 11:36 | 50.90217 | 4.48484 | 118 ft | 4 kts | 334° |
| 2026-04-26 11:36 | 50.90193 | 4.48502 | 118 ft | 4 kts | 342° |
| 2026-04-26 11:36 | 50.90170 | 4.48507 | 123 ft | 4 kts | 34° |
| 2026-04-26 11:36 | 50.90164 | 4.48500 | 121 ft | 0 kts | 65° |
| 2026-04-26 11:41 | 50.90177 | 4.48545 | 124 ft | 9 kts | 66° |
| 2026-04-26 11:42 | 50.90400 | 4.49573 | 124 ft | 16 kts | 183° |
| 2026-04-26 11:43 | 50.90292 | 4.49528 | 124 ft | 16 kts | 196° |
| 2026-04-26 11:43 | 50.90188 | 4.49483 | 128 ft | 15 kts | 194° |
| 2026-04-26 11:43 | 50.90091 | 4.49447 | 129 ft | 14 kts | 194° |
| 2026-04-26 11:43 | 50.89998 | 4.49407 | 132 ft | 14 kts | 197° |
| 2026-04-26 11:44 | 50.89916 | 4.49369 | 136 ft | 11 kts | 196° |
| 2026-04-26 11:44 | 50.89853 | 4.49342 | 139 ft | 8 kts | 195° |
| 2026-04-26 11:44 | 50.89800 | 4.49319 | 143 ft | 8 kts | 195° |
| 2026-04-26 11:44 | 50.89751 | 4.49297 | 146 ft | 7 kts | 195° |
| 2026-04-26 11:45 | 50.89676 | 4.49272 | 150 ft | 16 kts | 191° |
| 2026-04-26 11:45 | 50.89576 | 4.49211 | 156 ft | 14 kts | 206° |
| 2026-04-26 11:45 | 50.89493 | 4.49164 | 160 ft | 11 kts | 194° |
| 2026-04-26 11:45 | 50.89429 | 4.49140 | 163 ft | 4 kts | 193° |
| 2026-04-26 11:46 | 50.89409 | 4.49132 | 164 ft | 2 kts | 193° |
| 2026-04-26 11:46 | 50.89403 | 4.49130 | 164 ft | 1 kts | 193° |
| 2026-04-26 11:46 | 50.89380 | 4.49122 | 165 ft | 5 kts | 193° |
| 2026-04-26 11:46 | 50.89329 | 4.49098 | 167 ft | 11 kts | 198° |
| 2026-04-26 11:47 | 50.89247 | 4.49058 | 172 ft | 11 kts | 195° |
| 2026-04-26 11:47 | 50.89177 | 4.49040 | 176 ft | 10 kts | 165° |
| 2026-04-26 11:47 | 50.89160 | 4.49150 | 176 ft | 12 kts | 71° |
| 2026-04-26 11:47 | 50.89205 | 4.49340 | 176 ft | 43 kts | 69° |
| 2026-04-26 11:48 | 50.89403 | 4.50195 | 177 ft | 119 kts | 70° |
| 2026-04-26 11:48 | 50.89753 | 4.51665 | 451 ft | 148 kts | 69° |
| 2026-04-26 11:48 | 50.90135 | 4.53170 | 1161 ft | 147 kts | 64° |
| 2026-04-26 11:48 | 50.90616 | 4.54667 | 1714 ft | 161 kts | 61° |
| 2026-04-26 11:49 | 50.91173 | 4.56311 | 2252 ft | 177 kts | 60° |
| 2026-04-26 11:49 | 50.91789 | 4.58084 | 2809 ft | 192 kts | 60° |
| 2026-04-26 11:49 | 50.92440 | 4.60111 | 3140 ft | 222 kts | 62° |
| 2026-04-26 11:49 | 50.93159 | 4.62452 | 3636 ft | 249 kts | 63° |
| 2026-04-26 11:50 | 50.93937 | 4.64993 | 4430 ft | 262 kts | 64° |
| 2026-04-26 11:50 | 50.94524 | 4.67737 | 5437 ft | 267 kts | 81° |
| 2026-04-26 11:50 | 50.94417 | 4.70699 | 6393 ft | 274 kts | 106° |
| 2026-04-26 11:50 | 50.93474 | 4.73342 | 7310 ft | 282 kts | 133° |
| 2026-04-26 11:51 | 50.91905 | 4.75245 | 8253 ft | 286 kts | 146° |
| 2026-04-26 11:51 | 50.90242 | 4.77008 | 9242 ft | 290 kts | 146° |
| 2026-04-26 11:51 | 50.88547 | 4.78794 | 10155 ft | 295 kts | 146° |
| 2026-04-26 11:51 | 50.86804 | 4.80633 | 10757 ft | 312 kts | 146° |
| 2026-04-26 11:52 | 50.84929 | 4.82613 | 11097 ft | 336 kts | 146° |
| 2026-04-26 11:52 | 50.83612 | 4.84005 | 11283 ft | 352 kts | 146° |
| 2026-04-26 11:52 | 50.80771 | 4.87014 | 11625 ft | 381 kts | 146° |
| 2026-04-26 11:52 | 50.78548 | 4.89375 | 12230 ft | 389 kts | 146° |
| 2026-04-26 11:53 | 50.76293 | 4.91771 | 12936 ft | 394 kts | 146° |
| 2026-04-26 11:53 | 50.74004 | 4.94204 | 13665 ft | 398 kts | 146° |
| 2026-04-26 11:53 | 50.71687 | 4.96655 | 14345 ft | 403 kts | 146° |
| 2026-04-26 11:54 | 50.66975 | 5.01620 | 15628 ft | 411 kts | 147° |
| 2026-04-26 11:54 | 50.64617 | 5.04100 | 16263 ft | 415 kts | 147° |
| 2026-04-26 11:54 | 50.62202 | 5.06636 | 16907 ft | 419 kts | 147° |
| 2026-04-26 11:54 | 50.59766 | 5.09198 | 17527 ft | 423 kts | 147° |
| 2026-04-26 11:55 | 50.57275 | 5.11814 | 18148 ft | 427 kts | 147° |
| 2026-04-26 11:55 | 50.54832 | 5.14377 | 18751 ft | 429 kts | 147° |
| 2026-04-26 11:55 | 50.52343 | 5.16980 | 19258 ft | 432 kts | 147° |
| 2026-04-26 11:55 | 50.49828 | 5.19606 | 19731 ft | 436 kts | 147° |
| 2026-04-26 11:56 | 50.47288 | 5.22257 | 20193 ft | 440 kts | 147° |
| 2026-04-26 11:56 | 50.44728 | 5.24925 | 20639 ft | 444 kts | 147° |
| 2026-04-26 11:56 | 50.42141 | 5.27619 | 21092 ft | 448 kts | 147° |
| 2026-04-26 11:56 | 50.39534 | 5.30332 | 21527 ft | 452 kts | 147° |
| 2026-04-26 11:57 | 50.36906 | 5.33064 | 21947 ft | 456 kts | 147° |
| 2026-04-26 11:57 | 50.34251 | 5.35817 | 22353 ft | 459 kts | 147° |
| 2026-04-26 11:57 | 50.31571 | 5.38586 | 22773 ft | 463 kts | 147° |
| 2026-04-26 11:57 | 50.28872 | 5.41373 | 23151 ft | 467 kts | 147° |
| 2026-04-26 11:58 | 50.26150 | 5.44182 | 23496 ft | 471 kts | 147° |
| 2026-04-26 11:58 | 50.23402 | 5.47019 | 23878 ft | 475 kts | 147° |
| 2026-04-26 11:58 | 50.20632 | 5.49874 | 24204 ft | 478 kts | 147° |
| 2026-04-26 11:58 | 50.17849 | 5.52739 | 24571 ft | 480 kts | 147° |
| 2026-04-26 11:59 | 50.15057 | 5.55605 | 24965 ft | 481 kts | 147° |
| 2026-04-26 11:59 | 50.12251 | 5.58478 | 25296 ft | 483 kts | 147° |
| 2026-04-26 11:59 | 50.10387 | 5.60385 | 25513 ft | 485 kts | 147° |
| 2026-04-26 11:59 | 50.06611 | 5.64252 | 25952 ft | 487 kts | 147° |
| 2026-04-26 12:00 | 50.04729 | 5.66177 | 26153 ft | 489 kts | 147° |
| 2026-04-26 12:00 | 50.01875 | 5.69088 | 26409 ft | 493 kts | 147° |
| 2026-04-26 12:00 | 49.98998 | 5.72011 | 26698 ft | 495 kts | 147° |
| 2026-04-26 12:00 | 49.96104 | 5.74945 | 27005 ft | 498 kts | 147° |
| 2026-04-26 12:01 | 49.93201 | 5.77888 | 27303 ft | 500 kts | 147° |
| 2026-04-26 12:01 | 49.90288 | 5.80843 | 27590 ft | 502 kts | 147° |
| 2026-04-26 12:01 | 49.87368 | 5.83804 | 27994 ft | 501 kts | 147° |
| 2026-04-26 12:01 | 49.84451 | 5.86756 | 28451 ft | 500 kts | 147° |
| 2026-04-26 12:02 | 49.81541 | 5.89695 | 28903 ft | 499 kts | 147° |
| 2026-04-26 12:02 | 49.78646 | 5.92615 | 29486 ft | 495 kts | 147° |
| 2026-04-26 12:02 | 49.75772 | 5.95513 | 30042 ft | 492 kts | 147° |
| 2026-04-26 12:02 | 49.72910 | 5.98394 | 30502 ft | 491 kts | 147° |
| 2026-04-26 12:03 | 49.70053 | 6.01263 | 30908 ft | 489 kts | 148° |
| 2026-04-26 12:03 | 49.67199 | 6.04117 | 31198 ft | 489 kts | 148° |
| 2026-04-26 12:03 | 49.64345 | 6.06964 | 31269 ft | 487 kts | 148° |
| 2026-04-26 12:04 | 49.58659 | 6.12636 | 31275 ft | 486 kts | 148° |
| 2026-04-26 12:04 | 49.52966 | 6.18313 | 31274 ft | 489 kts | 148° |
| 2026-04-26 12:05 | 49.47246 | 6.23993 | 31269 ft | 489 kts | 148° |
| 2026-04-26 12:05 | 49.41532 | 6.29655 | 31258 ft | 486 kts | 148° |
| 2026-04-26 12:06 | 49.35863 | 6.35245 | 31253 ft | 484 kts | 148° |
| 2026-04-26 12:06 | 49.30195 | 6.40817 | 31233 ft | 484 kts | 148° |
| 2026-04-26 12:07 | 49.24527 | 6.46400 | 31229 ft | 485 kts | 148° |
| 2026-04-26 12:07 | 49.18880 | 6.51935 | 31231 ft | 485 kts | 148° |
| 2026-04-26 12:08 | 49.13187 | 6.57486 | 31230 ft | 486 kts | 148° |
| 2026-04-26 12:08 | 49.07490 | 6.63033 | 31227 ft | 486 kts | 149° |
| 2026-04-26 12:09 | 49.01789 | 6.68561 | 31247 ft | 485 kts | 149° |
| 2026-04-26 12:09 | 48.95849 | 6.73287 | 31251 ft | 481 kts | 160° |
| 2026-04-26 12:10 | 48.89620 | 6.76982 | 31257 ft | 480 kts | 160° |
| 2026-04-26 12:10 | 48.83399 | 6.80663 | 31230 ft | 480 kts | 160° |
| 2026-04-26 12:11 | 48.77172 | 6.84346 | 31226 ft | 480 kts | 160° |
| 2026-04-26 12:11 | 48.70942 | 6.88027 | 31222 ft | 481 kts | 160° |
| 2026-04-26 12:12 | 48.64708 | 6.91687 | 31223 ft | 481 kts | 161° |
| 2026-04-26 12:12 | 48.58515 | 6.95309 | 31227 ft | 481 kts | 161° |
| 2026-04-26 12:13 | 48.52293 | 6.98945 | 31250 ft | 478 kts | 161° |
| 2026-04-26 12:13 | 48.46097 | 7.02561 | 31250 ft | 477 kts | 161° |
| 2026-04-26 12:14 | 48.39914 | 7.06147 | 31229 ft | 476 kts | 161° |
| 2026-04-26 12:14 | 48.33745 | 7.09727 | 31230 ft | 475 kts | 161° |
| 2026-04-26 12:15 | 48.27576 | 7.13301 | 31228 ft | 475 kts | 161° |
| 2026-04-26 12:15 | 48.21409 | 7.16861 | 31205 ft | 475 kts | 161° |
| 2026-04-26 12:16 | 48.15241 | 7.20410 | 31218 ft | 475 kts | 161° |
| 2026-04-26 12:16 | 48.09072 | 7.23943 | 31220 ft | 474 kts | 161° |
| 2026-04-26 12:17 | 48.02911 | 7.27465 | 31234 ft | 473 kts | 161° |
| 2026-04-26 12:17 | 47.96767 | 7.30981 | 31226 ft | 472 kts | 161° |
| 2026-04-26 12:18 | 47.90730 | 7.34428 | 30952 ft | 457 kts | 162° |
| 2026-04-26 12:18 | 47.87819 | 7.36086 | 30811 ft | 440 kts | 162° |
| 2026-04-26 12:18 | 47.85005 | 7.37684 | 30687 ft | 426 kts | 162° |
| 2026-04-26 12:18 | 47.82248 | 7.39244 | 30124 ft | 422 kts | 162° |
| 2026-04-26 12:19 | 47.79509 | 7.40786 | 29514 ft | 420 kts | 162° |
| 2026-04-26 12:19 | 47.76793 | 7.42319 | 28915 ft | 416 kts | 162° |
| 2026-04-26 12:19 | 47.74096 | 7.43843 | 28345 ft | 413 kts | 162° |
| 2026-04-26 12:19 | 47.71425 | 7.45351 | 27790 ft | 409 kts | 162° |
| 2026-04-26 12:20 | 47.68779 | 7.46847 | 27263 ft | 406 kts | 161° |
| 2026-04-26 12:20 | 47.66260 | 7.48745 | 26757 ft | 407 kts | 148° |
| 2026-04-26 12:20 | 47.64097 | 7.51414 | 26112 ft | 405 kts | 135° |
| 2026-04-26 12:20 | 47.62412 | 7.54733 | 25366 ft | 403 kts | 121° |
| 2026-04-26 12:21 | 47.61279 | 7.58512 | 24642 ft | 400 kts | 110° |
| 2026-04-26 12:21 | 47.60387 | 7.62403 | 23914 ft | 397 kts | 110° |
| 2026-04-26 12:21 | 47.59492 | 7.66252 | 23108 ft | 393 kts | 110° |
| 2026-04-26 12:21 | 47.58597 | 7.70050 | 22332 ft | 389 kts | 110° |
| 2026-04-26 12:22 | 47.57708 | 7.73803 | 21572 ft | 384 kts | 110° |
| 2026-04-26 12:22 | 47.56827 | 7.77519 | 20809 ft | 380 kts | 110° |
| 2026-04-26 12:22 | 47.55959 | 7.81189 | 20085 ft | 376 kts | 110° |
| 2026-04-26 12:22 | 47.55098 | 7.84830 | 19369 ft | 372 kts | 110° |
| 2026-04-26 12:23 | 47.54247 | 7.88425 | 18696 ft | 369 kts | 110° |
| 2026-04-26 12:23 | 47.53404 | 7.91991 | 17953 ft | 365 kts | 110° |
| 2026-04-26 12:23 | 47.52566 | 7.95518 | 17224 ft | 361 kts | 110° |
| 2026-04-26 12:23 | 47.51735 | 7.99003 | 16553 ft | 357 kts | 109° |
| 2026-04-26 12:24 | 47.50909 | 8.02456 | 15717 ft | 357 kts | 109° |
| 2026-04-26 12:24 | 47.49967 | 8.05834 | 15120 ft | 352 kts | 120° |
| 2026-04-26 12:24 | 47.48490 | 8.08631 | 14621 ft | 341 kts | 139° |
| 2026-04-26 12:25 | 47.44316 | 8.11426 | 13270 ft | 330 kts | 176° |
| 2026-04-26 12:25 | 47.42057 | 8.11231 | 12627 ft | 323 kts | 194° |
| 2026-04-26 12:25 | 47.39980 | 8.10035 | 12382 ft | 321 kts | 212° |
| 2026-04-26 12:25 | 47.38216 | 8.08039 | 11956 ft | 319 kts | 228° |
| 2026-04-26 12:26 | 47.36961 | 8.05375 | 11438 ft | 316 kts | 245° |
| 2026-04-26 12:26 | 47.36233 | 8.02324 | 10917 ft | 317 kts | 261° |
| 2026-04-26 12:26 | 47.36315 | 7.99098 | 10411 ft | 317 kts | 285° |
| 2026-04-26 12:26 | 47.37289 | 7.96206 | 9888 ft | 318 kts | 309° |
| 2026-04-26 12:27 | 47.38986 | 7.94153 | 9338 ft | 318 kts | 333° |
| 2026-04-26 12:27 | 47.41102 | 7.93308 | 8797 ft | 317 kts | 358° |
| 2026-04-26 12:27 | 47.43261 | 7.93809 | 8267 ft | 315 kts | 20° |
| 2026-04-26 12:27 | 47.45295 | 7.94994 | 7746 ft | 314 kts | 23° |
| 2026-04-26 12:28 | 47.47305 | 7.96228 | 7340 ft | 310 kts | 24° |
| 2026-04-26 12:28 | 47.49274 | 7.97430 | 7054 ft | 303 kts | 24° |
| 2026-04-26 12:28 | 47.51201 | 7.98602 | 6755 ft | 295 kts | 24° |
| 2026-04-26 12:28 | 47.53062 | 7.99736 | 6458 ft | 284 kts | 24° |
| 2026-04-26 12:29 | 47.54861 | 8.00823 | 6139 ft | 273 kts | 23° |
| 2026-04-26 12:29 | 47.56583 | 8.01865 | 5849 ft | 262 kts | 23° |
| 2026-04-26 12:29 | 47.59827 | 8.03871 | 5250 ft | 247 kts | 24° |
| 2026-04-26 12:30 | 47.61395 | 8.04839 | 4940 ft | 241 kts | 24° |
| 2026-04-26 12:30 | 47.62868 | 8.05966 | 4630 ft | 238 kts | 40° |
| 2026-04-26 12:30 | 47.64019 | 8.07669 | 4335 ft | 237 kts | 48° |
| 2026-04-26 12:31 | 47.66198 | 8.11290 | 4029 ft | 236 kts | 49° |
| 2026-04-26 12:31 | 47.67282 | 8.13121 | 4030 ft | 236 kts | 52° |
| 2026-04-26 12:31 | 47.67926 | 8.15358 | 4031 ft | 236 kts | 83° |
| 2026-04-26 12:31 | 47.67686 | 8.17725 | 4024 ft | 238 kts | 109° |
| 2026-04-26 12:32 | 47.67037 | 8.19993 | 4019 ft | 239 kts | 113° |
| 2026-04-26 12:32 | 47.66342 | 8.22238 | 4020 ft | 239 kts | 113° |
| 2026-04-26 12:32 | 47.64929 | 8.26716 | 4027 ft | 238 kts | 114° |
| 2026-04-26 12:33 | 47.64221 | 8.28939 | 4034 ft | 239 kts | 114° |
| 2026-04-26 12:33 | 47.63516 | 8.31171 | 4028 ft | 239 kts | 114° |
| 2026-04-26 12:33 | 47.62795 | 8.33397 | 4025 ft | 240 kts | 118° |
| 2026-04-26 12:33 | 47.61684 | 8.35251 | 4025 ft | 242 kts | 136° |
| 2026-04-26 12:34 | 47.60440 | 8.36870 | 4018 ft | 231 kts | 137° |
| 2026-04-26 12:34 | 47.59292 | 8.38413 | 4027 ft | 215 kts | 136° |
| 2026-04-26 12:34 | 47.58213 | 8.39893 | 4011 ft | 210 kts | 134° |
| 2026-04-26 12:34 | 47.57144 | 8.41362 | 3803 ft | 210 kts | 134° |
| 2026-04-26 12:35 | 47.56078 | 8.42827 | 3550 ft | 207 kts | 133° |
| 2026-04-26 12:35 | 47.55026 | 8.44269 | 3281 ft | 204 kts | 134° |
| 2026-04-26 12:35 | 47.54000 | 8.45675 | 3010 ft | 198 kts | 133° |
| 2026-04-26 12:35 | 47.53015 | 8.47024 | 2774 ft | 188 kts | 134° |
| 2026-04-26 12:36 | 47.52075 | 8.48312 | 2512 ft | 180 kts | 135° |
| 2026-04-26 12:36 | 47.51189 | 8.49526 | 2260 ft | 167 kts | 136° |
| 2026-04-26 12:36 | 47.50383 | 8.50628 | 2039 ft | 148 kts | 134° |
| 2026-04-26 12:36 | 47.49676 | 8.51615 | 1828 ft | 134 kts | 133° |
| 2026-04-26 12:37 | 47.49002 | 8.52546 | 1681 ft | 131 kts | 134° |
| 2026-04-26 12:37 | 47.48323 | 8.53451 | 1499 ft | 130 kts | 132° |
| 2026-04-26 12:37 | 47.47661 | 8.54353 | 1404 ft | 125 kts | 128° |
| 2026-04-26 12:37 | 47.47101 | 8.55140 | 1385 ft | 98 kts | 137° |
| 2026-04-26 12:38 | 47.46758 | 8.55589 | 1400 ft | 40 kts | 144° |
| 2026-04-26 12:38 | 47.46520 | 8.55709 | 1395 ft | 29 kts | 171° |
| 2026-04-26 12:38 | 47.46375 | 8.55767 | 1404 ft | 14 kts | 148° |
| 2026-04-26 12:38 | 47.46304 | 8.55857 | 1401 ft | 9 kts | 141° |
| 2026-04-26 12:39 | 47.46302 | 8.55859 | 1401 ft | 0 kts | 141° |
| 2026-04-26 12:39 | 47.46269 | 8.55880 | 1404 ft | 15 kts | 180° |
| 2026-04-26 12:39 | 47.46241 | 8.55658 | 1400 ft | 28 kts | 276° |
| 2026-04-26 12:39 | 47.46264 | 8.55359 | 1395 ft | 30 kts | 277° |
| 2026-04-26 12:40 | 47.46285 | 8.55043 | 1389 ft | 30 kts | 275° |
| 2026-04-26 12:40 | 47.46189 | 8.54971 | 1387 ft | 20 kts | 155° |
| 2026-04-26 12:40 | 47.46062 | 8.55057 | 1395 ft | 20 kts | 156° |
| 2026-04-26 12:40 | 47.45938 | 8.55140 | 1399 ft | 19 kts | 155° |
| 2026-04-26 12:41 | 47.45822 | 8.55219 | 1401 ft | 19 kts | 153° |
| 2026-04-26 12:41 | 47.45703 | 8.55299 | 1401 ft | 18 kts | 158° |
| 2026-04-26 12:41 | 47.45590 | 8.55358 | 1402 ft | 10 kts | 156° |
| 2026-04-26 12:41 | 47.45539 | 8.55409 | 1405 ft | 9 kts | 127° |
| 2026-04-26 12:42 | 47.45526 | 8.55498 | 1405 ft | 11 kts | 96° |
| 2026-04-26 12:42 | 47.45516 | 8.55647 | 1411 ft | 17 kts | 96° |
| 2026-04-26 12:42 | 47.45489 | 8.55810 | 1410 ft | 15 kts | 140° |
| 2026-04-26 12:42 | 47.45429 | 8.55804 | 1407 ft | 5 kts | 186° |
| 2026-04-26 12:43 | 47.45421 | 8.55803 | 1407 ft | 0 kts | 186° |